sensor_id;sensor_type;location;lat;lon;timestamp;P1;durP1;ratioP1;P2;durP2;ratioP2
59922;SDS011;45778;51.142;3.732;2024-03-25T00:00:09;15.60;;;8.93;;
59922;SDS011;45778;51.142;3.732;2024-03-25T00:02:39;18.42;;;9.30;;
59922;SDS011;45778;51.142;3.732;2024-03-25T00:05:06;17.30;;;9.10;;
59922;SDS011;45778;51.142;3.732;2024-03-25T00:07:34;15.13;;;9.63;;
59922;SDS011;45778;51.142;3.732;2024-03-25T00:10:01;17.13;;;9.75;;
59922;SDS011;45778;51.142;3.732;2024-03-25T00:12:27;15.43;;;8.80;;
59922;SDS011;45778;51.142;3.732;2024-03-25T00:14:53;15.68;;;8.48;;
59922;SDS011;45778;51.142;3.732;2024-03-25T00:17:19;14.88;;;8.73;;
59922;SDS011;45778;51.142;3.732;2024-03-25T00:19:45;18.83;;;8.75;;
59922;SDS011;45778;51.142;3.732;2024-03-25T00:22:16;15.20;;;9.30;;
59922;SDS011;45778;51.142;3.732;2024-03-25T00:24:42;18.42;;;9.13;;
59922;SDS011;45778;51.142;3.732;2024-03-25T00:27:07;15.15;;;8.68;;
59922;SDS011;45778;51.142;3.732;2024-03-25T00:29:33;12.23;;;8.50;;
59922;SDS011;45778;51.142;3.732;2024-03-25T00:31:58;20.67;;;9.70;;
59922;SDS011;45778;51.142;3.732;2024-03-25T00:34:24;13.13;;;7.97;;
59922;SDS011;45778;51.142;3.732;2024-03-25T00:36:50;17.83;;;8.70;;
59922;SDS011;45778;51.142;3.732;2024-03-25T00:39:15;15.52;;;9.10;;
59922;SDS011;45778;51.142;3.732;2024-03-25T00:41:42;15.40;;;8.57;;
59922;SDS011;45778;51.142;3.732;2024-03-25T00:44:08;13.98;;;8.40;;
59922;SDS011;45778;51.142;3.732;2024-03-25T00:46:33;18.33;;;8.95;;
59922;SDS011;45778;51.142;3.732;2024-03-25T00:48:59;16.40;;;9.38;;
59922;SDS011;45778;51.142;3.732;2024-03-25T00:51:24;17.17;;;9.98;;
59922;SDS011;45778;51.142;3.732;2024-03-25T00:53:50;17.25;;;9.25;;
59922;SDS011;45778;51.142;3.732;2024-03-25T00:56:16;18.80;;;8.52;;
59922;SDS011;45778;51.142;3.732;2024-03-25T00:58:41;15.63;;;9.32;;
59922;SDS011;45778;51.142;3.732;2024-03-25T01:01:07;19.08;;;8.35;;
59922;SDS011;45778;51.142;3.732;2024-03-25T01:03:32;17.85;;;9.00;;
59922;SDS011;45778;51.142;3.732;2024-03-25T01:05:59;17.05;;;8.63;;
59922;SDS011;45778;51.142;3.732;2024-03-25T01:08:24;17.00;;;9.38;;
59922;SDS011;45778;51.142;3.732;2024-03-25T01:10:50;14.50;;;8.95;;
59922;SDS011;45778;51.142;3.732;2024-03-25T01:13:15;13.70;;;8.35;;
59922;SDS011;45778;51.142;3.732;2024-03-25T01:15:41;17.70;;;8.88;;
59922;SDS011;45778;51.142;3.732;2024-03-25T01:18:07;17.63;;;8.88;;
59922;SDS011;45778;51.142;3.732;2024-03-25T01:20:33;15.55;;;8.52;;
59922;SDS011;45778;51.142;3.732;2024-03-25T01:22:59;19.10;;;9.10;;
59922;SDS011;45778;51.142;3.732;2024-03-25T01:25:24;17.95;;;8.50;;
59922;SDS011;45778;51.142;3.732;2024-03-25T01:27:50;19.08;;;8.38;;
59922;SDS011;45778;51.142;3.732;2024-03-25T01:30:16;19.45;;;8.88;;
59922;SDS011;45778;51.142;3.732;2024-03-25T01:32:43;16.30;;;8.90;;
59922;SDS011;45778;51.142;3.732;2024-03-25T01:35:11;19.02;;;9.77;;
59922;SDS011;45778;51.142;3.732;2024-03-25T01:37:37;22.05;;;9.50;;
59922;SDS011;45778;51.142;3.732;2024-03-25T01:40:03;17.55;;;8.30;;
59922;SDS011;45778;51.142;3.732;2024-03-25T01:42:29;20.50;;;9.73;;
59922;SDS011;45778;51.142;3.732;2024-03-25T01:44:55;17.45;;;9.13;;
59922;SDS011;45778;51.142;3.732;2024-03-25T01:47:21;22.02;;;9.30;;
59922;SDS011;45778;51.142;3.732;2024-03-25T01:49:47;22.55;;;9.90;;
59922;SDS011;45778;51.142;3.732;2024-03-25T01:52:14;21.23;;;9.27;;
59922;SDS011;45778;51.142;3.732;2024-03-25T01:54:41;17.00;;;9.57;;
59922;SDS011;45778;51.142;3.732;2024-03-25T01:57:07;20.83;;;9.18;;
59922;SDS011;45778;51.142;3.732;2024-03-25T01:59:34;23.90;;;9.68;;
59922;SDS011;45778;51.142;3.732;2024-03-25T02:02:00;23.60;;;8.77;;
59922;SDS011;45778;51.142;3.732;2024-03-25T02:04:26;21.45;;;8.90;;
59922;SDS011;45778;51.142;3.732;2024-03-25T02:06:52;18.65;;;8.93;;
59922;SDS011;45778;51.142;3.732;2024-03-25T02:09:20;19.70;;;8.65;;
59922;SDS011;45778;51.142;3.732;2024-03-25T02:11:48;23.17;;;9.05;;
59922;SDS011;45778;51.142;3.732;2024-03-25T02:14:14;18.17;;;9.18;;
59922;SDS011;45778;51.142;3.732;2024-03-25T02:16:41;22.00;;;9.55;;
59922;SDS011;45778;51.142;3.732;2024-03-25T02:19:07;17.88;;;9.13;;
59922;SDS011;45778;51.142;3.732;2024-03-25T02:21:33;17.65;;;9.40;;
59922;SDS011;45778;51.142;3.732;2024-03-25T02:23:59;26.10;;;8.88;;
59922;SDS011;45778;51.142;3.732;2024-03-25T02:26:28;16.85;;;9.30;;
59922;SDS011;45778;51.142;3.732;2024-03-25T02:28:54;19.83;;;9.25;;
59922;SDS011;45778;51.142;3.732;2024-03-25T02:31:20;19.17;;;9.20;;
59922;SDS011;45778;51.142;3.732;2024-03-25T02:33:46;18.85;;;8.98;;
59922;SDS011;45778;51.142;3.732;2024-03-25T02:36:11;19.95;;;9.43;;
59922;SDS011;45778;51.142;3.732;2024-03-25T02:38:37;15.88;;;9.02;;
59922;SDS011;45778;51.142;3.732;2024-03-25T02:41:02;21.08;;;9.20;;
59922;SDS011;45778;51.142;3.732;2024-03-25T02:43:28;20.08;;;9.13;;
59922;SDS011;45778;51.142;3.732;2024-03-25T02:45:54;21.55;;;9.18;;
59922;SDS011;45778;51.142;3.732;2024-03-25T02:48:20;18.35;;;9.20;;
59922;SDS011;45778;51.142;3.732;2024-03-25T02:50:46;15.82;;;9.25;;
59922;SDS011;45778;51.142;3.732;2024-03-25T02:53:12;17.95;;;9.10;;
59922;SDS011;45778;51.142;3.732;2024-03-25T02:55:37;19.83;;;8.75;;
59922;SDS011;45778;51.142;3.732;2024-03-25T02:58:03;26.17;;;10.40;;
59922;SDS011;45778;51.142;3.732;2024-03-25T03:00:29;21.05;;;8.82;;
59922;SDS011;45778;51.142;3.732;2024-03-25T03:02:54;15.52;;;7.75;;
59922;SDS011;45778;51.142;3.732;2024-03-25T03:05:20;23.67;;;9.52;;
59922;SDS011;45778;51.142;3.732;2024-03-25T03:07:45;18.55;;;9.45;;
59922;SDS011;45778;51.142;3.732;2024-03-25T03:10:11;19.25;;;8.65;;
59922;SDS011;45778;51.142;3.732;2024-03-25T03:12:37;18.02;;;9.23;;
59922;SDS011;45778;51.142;3.732;2024-03-25T03:15:02;19.48;;;9.45;;
59922;SDS011;45778;51.142;3.732;2024-03-25T03:17:28;19.55;;;8.55;;
59922;SDS011;45778;51.142;3.732;2024-03-25T03:19:54;17.13;;;8.70;;
59922;SDS011;45778;51.142;3.732;2024-03-25T03:22:20;22.02;;;9.40;;
59922;SDS011;45778;51.142;3.732;2024-03-25T03:24:45;22.00;;;8.82;;
59922;SDS011;45778;51.142;3.732;2024-03-25T03:27:11;23.48;;;10.15;;
59922;SDS011;45778;51.142;3.732;2024-03-25T03:29:37;24.50;;;10.18;;
59922;SDS011;45778;51.142;3.732;2024-03-25T03:32:02;23.70;;;10.07;;
59922;SDS011;45778;51.142;3.732;2024-03-25T03:34:28;18.42;;;9.30;;
59922;SDS011;45778;51.142;3.732;2024-03-25T03:36:54;29.80;;;9.65;;
59922;SDS011;45778;51.142;3.732;2024-03-25T03:39:19;24.52;;;9.80;;
59922;SDS011;45778;51.142;3.732;2024-03-25T03:41:45;27.75;;;10.13;;
59922;SDS011;45778;51.142;3.732;2024-03-25T03:44:11;29.65;;;10.02;;
59922;SDS011;45778;51.142;3.732;2024-03-25T03:46:38;26.92;;;9.40;;
59922;SDS011;45778;51.142;3.732;2024-03-25T03:49:03;29.98;;;10.85;;
59922;SDS011;45778;51.142;3.732;2024-03-25T03:51:29;29.73;;;9.88;;
59922;SDS011;45778;51.142;3.732;2024-03-25T03:53:55;26.80;;;10.65;;
59922;SDS011;45778;51.142;3.732;2024-03-25T03:56:21;24.60;;;8.65;;
59922;SDS011;45778;51.142;3.732;2024-03-25T03:58:47;25.52;;;9.27;;
59922;SDS011;45778;51.142;3.732;2024-03-25T04:01:16;31.55;;;9.80;;
59922;SDS011;45778;51.142;3.732;2024-03-25T04:03:43;24.27;;;9.20;;
59922;SDS011;45778;51.142;3.732;2024-03-25T04:06:10;24.65;;;9.38;;
59922;SDS011;45778;51.142;3.732;2024-03-25T04:08:38;23.52;;;8.27;;
59922;SDS011;45778;51.142;3.732;2024-03-25T04:11:04;20.98;;;9.43;;
59922;SDS011;45778;51.142;3.732;2024-03-25T04:13:31;20.95;;;9.63;;
59922;SDS011;45778;51.142;3.732;2024-03-25T04:16:03;25.52;;;8.80;;
59922;SDS011;45778;51.142;3.732;2024-03-25T04:18:30;29.92;;;10.00;;
59922;SDS011;45778;51.142;3.732;2024-03-25T04:20:57;22.88;;;9.82;;
59922;SDS011;45778;51.142;3.732;2024-03-25T04:23:23;23.50;;;8.82;;
59922;SDS011;45778;51.142;3.732;2024-03-25T04:25:49;23.58;;;9.02;;
59922;SDS011;45778;51.142;3.732;2024-03-25T04:28:15;28.80;;;9.20;;
59922;SDS011;45778;51.142;3.732;2024-03-25T04:30:41;23.08;;;8.38;;
59922;SDS011;45778;51.142;3.732;2024-03-25T04:33:07;17.75;;;8.38;;
59922;SDS011;45778;51.142;3.732;2024-03-25T04:35:33;29.25;;;8.75;;
59922;SDS011;45778;51.142;3.732;2024-03-25T04:37:59;23.95;;;8.43;;
59922;SDS011;45778;51.142;3.732;2024-03-25T04:40:24;25.92;;;8.25;;
59922;SDS011;45778;51.142;3.732;2024-03-25T04:42:50;21.40;;;8.30;;
59922;SDS011;45778;51.142;3.732;2024-03-25T04:45:16;18.35;;;7.63;;
59922;SDS011;45778;51.142;3.732;2024-03-25T04:47:41;17.98;;;8.73;;
59922;SDS011;45778;51.142;3.732;2024-03-25T04:50:07;21.17;;;9.43;;
59922;SDS011;45778;51.142;3.732;2024-03-25T04:52:34;26.90;;;9.23;;
59922;SDS011;45778;51.142;3.732;2024-03-25T04:54:59;26.67;;;10.25;;
59922;SDS011;45778;51.142;3.732;2024-03-25T04:57:25;22.38;;;8.68;;
59922;SDS011;45778;51.142;3.732;2024-03-25T04:59:51;25.65;;;9.82;;
59922;SDS011;45778;51.142;3.732;2024-03-25T05:02:17;24.95;;;9.32;;
59922;SDS011;45778;51.142;3.732;2024-03-25T05:04:42;27.48;;;9.13;;
59922;SDS011;45778;51.142;3.732;2024-03-25T05:07:08;22.63;;;8.73;;
59922;SDS011;45778;51.142;3.732;2024-03-25T05:09:34;31.58;;;8.55;;
59922;SDS011;45778;51.142;3.732;2024-03-25T05:11:59;32.53;;;10.45;;
59922;SDS011;45778;51.142;3.732;2024-03-25T05:14:25;31.17;;;10.50;;
59922;SDS011;45778;51.142;3.732;2024-03-25T05:16:51;29.30;;;9.45;;
59922;SDS011;45778;51.142;3.732;2024-03-25T05:19:17;24.60;;;8.13;;
59922;SDS011;45778;51.142;3.732;2024-03-25T05:21:43;26.88;;;9.68;;
59922;SDS011;45778;51.142;3.732;2024-03-25T05:24:09;27.90;;;10.50;;
59922;SDS011;45778;51.142;3.732;2024-03-25T05:26:35;32.78;;;10.40;;
59922;SDS011;45778;51.142;3.732;2024-03-25T05:29:00;35.17;;;12.10;;
59922;SDS011;45778;51.142;3.732;2024-03-25T05:31:26;33.92;;;10.60;;
59922;SDS011;45778;51.142;3.732;2024-03-25T05:33:52;37.92;;;10.65;;
59922;SDS011;45778;51.142;3.732;2024-03-25T05:36:18;29.27;;;9.93;;
59922;SDS011;45778;51.142;3.732;2024-03-25T05:38:44;44.50;;;11.90;;
59922;SDS011;45778;51.142;3.732;2024-03-25T05:41:10;46.05;;;10.52;;
59922;SDS011;45778;51.142;3.732;2024-03-25T05:43:37;28.38;;;9.70;;
59922;SDS011;45778;51.142;3.732;2024-03-25T05:46:02;35.30;;;10.07;;
59922;SDS011;45778;51.142;3.732;2024-03-25T05:48:28;43.85;;;11.50;;
59922;SDS011;45778;51.142;3.732;2024-03-25T05:51:02;33.83;;;11.75;;
59922;SDS011;45778;51.142;3.732;2024-03-25T05:53:34;46.38;;;11.68;;
59922;SDS011;45778;51.142;3.732;2024-03-25T05:55:59;36.75;;;12.02;;
59922;SDS011;45778;51.142;3.732;2024-03-25T05:58:25;44.47;;;11.50;;
59922;SDS011;45778;51.142;3.732;2024-03-25T06:00:52;33.22;;;11.45;;
59922;SDS011;45778;51.142;3.732;2024-03-25T06:03:21;52.20;;;14.00;;
59922;SDS011;45778;51.142;3.732;2024-03-25T06:05:47;41.08;;;13.25;;
59922;SDS011;45778;51.142;3.732;2024-03-25T06:08:13;41.80;;;13.88;;
59922;SDS011;45778;51.142;3.732;2024-03-25T06:11:03;49.53;;;12.48;;
59922;SDS011;45778;51.142;3.732;2024-03-25T06:13:29;56.70;;;14.80;;
59922;SDS011;45778;51.142;3.732;2024-03-25T06:15:54;50.40;;;14.38;;
59922;SDS011;45778;51.142;3.732;2024-03-25T06:18:20;53.22;;;15.00;;
59922;SDS011;45778;51.142;3.732;2024-03-25T06:20:46;55.10;;;15.05;;
59922;SDS011;45778;51.142;3.732;2024-03-25T06:23:33;55.42;;;16.77;;
59922;SDS011;45778;51.142;3.732;2024-03-25T06:25:57;51.88;;;15.25;;
59922;SDS011;45778;51.142;3.732;2024-03-25T06:28:23;67.97;;;16.73;;
59922;SDS011;45778;51.142;3.732;2024-03-25T06:30:49;56.95;;;14.73;;
59922;SDS011;45778;51.142;3.732;2024-03-25T06:33:34;44.42;;;16.00;;
59922;SDS011;45778;51.142;3.732;2024-03-25T06:36:19;66.38;;;14.50;;
59922;SDS011;45778;51.142;3.732;2024-03-25T06:38:46;61.35;;;14.68;;
59922;SDS011;45778;51.142;3.732;2024-03-25T06:41:11;61.55;;;15.60;;
59922;SDS011;45778;51.142;3.732;2024-03-25T06:43:37;53.35;;;12.27;;
59922;SDS011;45778;51.142;3.732;2024-03-25T06:46:04;62.10;;;15.20;;
59922;SDS011;45778;51.142;3.732;2024-03-25T06:48:33;54.53;;;14.43;;
59922;SDS011;45778;51.142;3.732;2024-03-25T06:51:02;57.28;;;14.82;;
59922;SDS011;45778;51.142;3.732;2024-03-25T06:53:28;61.47;;;13.35;;
59922;SDS011;45778;51.142;3.732;2024-03-25T06:55:58;59.33;;;15.15;;
59922;SDS011;45778;51.142;3.732;2024-03-25T06:58:24;57.58;;;15.32;;
59922;SDS011;45778;51.142;3.732;2024-03-25T07:00:53;60.08;;;15.48;;
59922;SDS011;45778;51.142;3.732;2024-03-25T07:03:20;59.20;;;14.40;;
59922;SDS011;45778;51.142;3.732;2024-03-25T07:05:47;62.30;;;13.77;;
59922;SDS011;45778;51.142;3.732;2024-03-25T07:08:14;58.58;;;12.73;;
59922;SDS011;45778;51.142;3.732;2024-03-25T07:10:44;67.68;;;13.57;;
59922;SDS011;45778;51.142;3.732;2024-03-25T07:13:10;41.08;;;12.48;;
59922;SDS011;45778;51.142;3.732;2024-03-25T07:15:36;44.75;;;12.98;;
59922;SDS011;45778;51.142;3.732;2024-03-25T07:18:02;57.10;;;15.63;;
59922;SDS011;45778;51.142;3.732;2024-03-25T07:20:29;50.15;;;13.68;;
59922;SDS011;45778;51.142;3.732;2024-03-25T07:22:55;51.28;;;14.57;;
59922;SDS011;45778;51.142;3.732;2024-03-25T07:25:22;55.47;;;14.68;;
59922;SDS011;45778;51.142;3.732;2024-03-25T07:27:48;59.92;;;17.88;;
59922;SDS011;45778;51.142;3.732;2024-03-25T07:30:14;56.22;;;16.23;;
59922;SDS011;45778;51.142;3.732;2024-03-25T07:32:40;63.10;;;15.23;;
59922;SDS011;45778;51.142;3.732;2024-03-25T07:35:06;49.63;;;16.10;;
59922;SDS011;45778;51.142;3.732;2024-03-25T07:37:33;53.22;;;14.82;;
59922;SDS011;45778;51.142;3.732;2024-03-25T07:39:59;52.63;;;15.52;;
59922;SDS011;45778;51.142;3.732;2024-03-25T07:42:24;51.20;;;14.95;;
59922;SDS011;45778;51.142;3.732;2024-03-25T07:44:50;56.60;;;16.48;;
59922;SDS011;45778;51.142;3.732;2024-03-25T07:47:16;57.67;;;15.65;;
59922;SDS011;45778;51.142;3.732;2024-03-25T07:49:42;50.47;;;14.32;;
59922;SDS011;45778;51.142;3.732;2024-03-25T07:52:07;47.55;;;14.02;;
59922;SDS011;45778;51.142;3.732;2024-03-25T07:54:33;48.50;;;14.27;;
59922;SDS011;45778;51.142;3.732;2024-03-25T07:57:00;55.03;;;14.18;;
59922;SDS011;45778;51.142;3.732;2024-03-25T07:59:25;52.45;;;14.60;;
59922;SDS011;45778;51.142;3.732;2024-03-25T08:01:51;48.63;;;15.95;;
59922;SDS011;45778;51.142;3.732;2024-03-25T08:04:17;58.42;;;14.25;;
59922;SDS011;45778;51.142;3.732;2024-03-25T08:06:43;50.85;;;14.60;;
59922;SDS011;45778;51.142;3.732;2024-03-25T08:09:08;50.85;;;13.82;;
59922;SDS011;45778;51.142;3.732;2024-03-25T08:11:35;43.67;;;14.38;;
59922;SDS011;45778;51.142;3.732;2024-03-25T08:14:00;47.05;;;14.27;;
59922;SDS011;45778;51.142;3.732;2024-03-25T08:16:26;50.95;;;14.75;;
59922;SDS011;45778;51.142;3.732;2024-03-25T08:18:52;42.90;;;13.35;;
59922;SDS011;45778;51.142;3.732;2024-03-25T08:21:17;41.75;;;12.93;;
59922;SDS011;45778;51.142;3.732;2024-03-25T08:23:46;37.95;;;11.77;;
59922;SDS011;45778;51.142;3.732;2024-03-25T08:26:12;47.17;;;12.40;;
59922;SDS011;45778;51.142;3.732;2024-03-25T08:28:37;44.30;;;11.73;;
59922;SDS011;45778;51.142;3.732;2024-03-25T08:31:03;38.63;;;13.23;;
59922;SDS011;45778;51.142;3.732;2024-03-25T08:33:29;40.85;;;12.48;;
59922;SDS011;45778;51.142;3.732;2024-03-25T08:35:55;34.80;;;11.60;;
59922;SDS011;45778;51.142;3.732;2024-03-25T08:38:21;31.38;;;12.38;;
59922;SDS011;45778;51.142;3.732;2024-03-25T08:40:47;34.60;;;12.50;;
59922;SDS011;45778;51.142;3.732;2024-03-25T08:43:12;35.50;;;11.73;;
59922;SDS011;45778;51.142;3.732;2024-03-25T08:45:38;27.85;;;11.48;;
59922;SDS011;45778;51.142;3.732;2024-03-25T08:48:05;32.85;;;12.05;;
59922;SDS011;45778;51.142;3.732;2024-03-25T08:50:31;30.23;;;11.32;;
59922;SDS011;45778;51.142;3.732;2024-03-25T08:52:57;27.95;;;10.65;;
59922;SDS011;45778;51.142;3.732;2024-03-25T08:55:27;33.50;;;10.90;;
59922;SDS011;45778;51.142;3.732;2024-03-25T08:57:53;26.40;;;9.52;;
59922;SDS011;45778;51.142;3.732;2024-03-25T09:00:18;26.45;;;10.60;;
59922;SDS011;45778;51.142;3.732;2024-03-25T09:02:44;23.30;;;10.10;;
59922;SDS011;45778;51.142;3.732;2024-03-25T09:05:09;27.10;;;8.75;;
59922;SDS011;45778;51.142;3.732;2024-03-25T09:07:35;23.02;;;9.55;;
59922;SDS011;45778;51.142;3.732;2024-03-25T09:10:02;19.45;;;7.57;;
59922;SDS011;45778;51.142;3.732;2024-03-25T09:12:46;26.95;;;9.13;;
59922;SDS011;45778;51.142;3.732;2024-03-25T09:15:11;29.83;;;9.50;;
59922;SDS011;45778;51.142;3.732;2024-03-25T09:17:37;21.40;;;9.05;;
59922;SDS011;45778;51.142;3.732;2024-03-25T09:20:04;19.15;;;8.30;;
59922;SDS011;45778;51.142;3.732;2024-03-25T09:22:41;19.02;;;8.35;;
59922;SDS011;45778;51.142;3.732;2024-03-25T09:25:07;20.05;;;9.30;;
59922;SDS011;45778;51.142;3.732;2024-03-25T09:27:33;17.85;;;8.63;;
59922;SDS011;45778;51.142;3.732;2024-03-25T09:29:59;21.27;;;9.30;;
59922;SDS011;45778;51.142;3.732;2024-03-25T09:32:24;16.38;;;8.55;;
59922;SDS011;45778;51.142;3.732;2024-03-25T09:34:51;18.08;;;7.53;;
59922;SDS011;45778;51.142;3.732;2024-03-25T09:37:17;21.73;;;7.55;;
59922;SDS011;45778;51.142;3.732;2024-03-25T09:39:43;25.20;;;7.88;;
59922;SDS011;45778;51.142;3.732;2024-03-25T09:42:08;21.90;;;7.40;;
59922;SDS011;45778;51.142;3.732;2024-03-25T09:44:40;15.45;;;7.28;;
59922;SDS011;45778;51.142;3.732;2024-03-25T09:47:06;21.33;;;8.10;;
59922;SDS011;45778;51.142;3.732;2024-03-25T09:49:34;24.17;;;6.82;;
59922;SDS011;45778;51.142;3.732;2024-03-25T09:52:01;18.23;;;6.85;;
59922;SDS011;45778;51.142;3.732;2024-03-25T09:54:27;18.67;;;7.50;;
59922;SDS011;45778;51.142;3.732;2024-03-25T09:56:53;13.20;;;5.97;;
59922;SDS011;45778;51.142;3.732;2024-03-25T09:59:19;15.18;;;7.00;;
59922;SDS011;45778;51.142;3.732;2024-03-25T10:01:45;12.45;;;6.35;;
59922;SDS011;45778;51.142;3.732;2024-03-25T10:04:11;15.93;;;7.55;;
59922;SDS011;45778;51.142;3.732;2024-03-25T10:06:36;20.52;;;6.30;;
59922;SDS011;45778;51.142;3.732;2024-03-25T10:09:05;15.70;;;6.90;;
59922;SDS011;45778;51.142;3.732;2024-03-25T10:11:31;20.27;;;6.90;;
59922;SDS011;45778;51.142;3.732;2024-03-25T10:14:00;22.55;;;7.15;;
59922;SDS011;45778;51.142;3.732;2024-03-25T10:16:26;17.45;;;6.93;;
59922;SDS011;45778;51.142;3.732;2024-03-25T10:18:52;14.30;;;6.40;;
59922;SDS011;45778;51.142;3.732;2024-03-25T10:21:21;24.35;;;6.57;;
59922;SDS011;45778;51.142;3.732;2024-03-25T10:23:48;16.90;;;5.90;;
59922;SDS011;45778;51.142;3.732;2024-03-25T10:26:27;12.27;;;5.47;;
59922;SDS011;45778;51.142;3.732;2024-03-25T10:29:03;15.38;;;5.28;;
59922;SDS011;45778;51.142;3.732;2024-03-25T10:31:32;13.10;;;5.55;;
59922;SDS011;45778;51.142;3.732;2024-03-25T10:33:58;13.88;;;4.57;;
59922;SDS011;45778;51.142;3.732;2024-03-25T10:36:24;11.90;;;4.82;;
59922;SDS011;45778;51.142;3.732;2024-03-25T10:38:53;12.55;;;4.93;;
59922;SDS011;45778;51.142;3.732;2024-03-25T10:41:20;12.18;;;3.92;;
59922;SDS011;45778;51.142;3.732;2024-03-25T10:43:47;13.80;;;4.93;;
59922;SDS011;45778;51.142;3.732;2024-03-25T10:46:16;12.65;;;5.00;;
59922;SDS011;45778;51.142;3.732;2024-03-25T10:51:56;8.98;;;4.10;;
59922;SDS011;45778;51.142;3.732;2024-03-25T10:54:23;13.35;;;3.90;;
59922;SDS011;45778;51.142;3.732;2024-03-25T10:56:49;11.95;;;3.95;;
59922;SDS011;45778;51.142;3.732;2024-03-25T10:59:16;11.98;;;3.78;;
59922;SDS011;45778;51.142;3.732;2024-03-25T11:01:46;8.82;;;3.95;;
59922;SDS011;45778;51.142;3.732;2024-03-25T11:04:11;12.40;;;3.67;;
59922;SDS011;45778;51.142;3.732;2024-03-25T11:06:37;14.40;;;3.35;;
59922;SDS011;45778;51.142;3.732;2024-03-25T11:09:03;10.38;;;3.33;;
59922;SDS011;45778;51.142;3.732;2024-03-25T11:11:32;9.65;;;3.53;;
59922;SDS011;45778;51.142;3.732;2024-03-25T11:14:02;12.15;;;4.18;;
59922;SDS011;45778;51.142;3.732;2024-03-25T11:16:29;13.20;;;4.43;;
59922;SDS011;45778;51.142;3.732;2024-03-25T11:18:55;9.13;;;3.30;;
59922;SDS011;45778;51.142;3.732;2024-03-25T11:21:25;8.90;;;3.53;;
59922;SDS011;45778;51.142;3.732;2024-03-25T11:23:51;15.15;;;4.07;;
59922;SDS011;45778;51.142;3.732;2024-03-25T11:26:18;16.30;;;3.75;;
59922;SDS011;45778;51.142;3.732;2024-03-25T11:28:49;11.50;;;4.82;;
59922;SDS011;45778;51.142;3.732;2024-03-25T11:31:15;10.98;;;3.75;;
59922;SDS011;45778;51.142;3.732;2024-03-25T11:33:44;10.60;;;3.65;;
59922;SDS011;45778;51.142;3.732;2024-03-25T11:36:10;12.20;;;4.30;;
59922;SDS011;45778;51.142;3.732;2024-03-25T11:38:36;8.65;;;4.25;;
59922;SDS011;45778;51.142;3.732;2024-03-25T11:41:05;11.40;;;4.70;;
59922;SDS011;45778;51.142;3.732;2024-03-25T11:43:32;13.07;;;4.47;;
59922;SDS011;45778;51.142;3.732;2024-03-25T11:45:58;11.95;;;4.53;;
59922;SDS011;45778;51.142;3.732;2024-03-25T11:48:23;8.73;;;4.18;;
59922;SDS011;45778;51.142;3.732;2024-03-25T11:50:49;13.63;;;4.78;;
59922;SDS011;45778;51.142;3.732;2024-03-25T11:53:15;13.35;;;5.00;;
59922;SDS011;45778;51.142;3.732;2024-03-25T11:55:45;9.73;;;5.70;;
59922;SDS011;45778;51.142;3.732;2024-03-25T11:58:12;12.55;;;5.45;;
59922;SDS011;45778;51.142;3.732;2024-03-25T12:00:47;10.32;;;5.82;;
59922;SDS011;45778;51.142;3.732;2024-03-25T12:03:16;6.93;;;4.13;;
59922;SDS011;45778;51.142;3.732;2024-03-25T12:05:46;10.15;;;3.75;;
59922;SDS011;45778;51.142;3.732;2024-03-25T12:08:11;8.55;;;4.25;;
59922;SDS011;45778;51.142;3.732;2024-03-25T12:10:38;8.27;;;4.72;;
59922;SDS011;45778;51.142;3.732;2024-03-25T12:13:23;8.68;;;4.72;;
59922;SDS011;45778;51.142;3.732;2024-03-25T12:15:50;10.15;;;4.80;;
59922;SDS011;45778;51.142;3.732;2024-03-25T12:18:16;13.75;;;4.82;;
59922;SDS011;45778;51.142;3.732;2024-03-25T12:20:45;9.30;;;4.57;;
59922;SDS011;45778;51.142;3.732;2024-03-25T12:23:10;10.18;;;4.28;;
59922;SDS011;45778;51.142;3.732;2024-03-25T12:25:36;8.70;;;4.30;;
59922;SDS011;45778;51.142;3.732;2024-03-25T12:28:07;6.68;;;4.00;;
59922;SDS011;45778;51.142;3.732;2024-03-25T12:30:40;8.48;;;3.63;;
59922;SDS011;45778;51.142;3.732;2024-03-25T12:33:13;7.38;;;3.08;;
59922;SDS011;45778;51.142;3.732;2024-03-25T12:35:39;8.35;;;2.72;;
59922;SDS011;45778;51.142;3.732;2024-03-25T12:38:05;10.63;;;2.92;;
59922;SDS011;45778;51.142;3.732;2024-03-25T12:40:31;9.30;;;2.80;;
59922;SDS011;45778;51.142;3.732;2024-03-25T12:42:56;7.53;;;2.47;;
59922;SDS011;45778;51.142;3.732;2024-03-25T12:45:24;7.18;;;2.63;;
59922;SDS011;45778;51.142;3.732;2024-03-25T12:47:50;8.90;;;2.90;;
59922;SDS011;45778;51.142;3.732;2024-03-25T12:50:16;5.93;;;3.00;;
59922;SDS011;45778;51.142;3.732;2024-03-25T12:52:42;8.30;;;2.70;;
59922;SDS011;45778;51.142;3.732;2024-03-25T12:55:07;4.22;;;1.75;;
59922;SDS011;45778;51.142;3.732;2024-03-25T12:57:34;5.78;;;2.00;;
59922;SDS011;45778;51.142;3.732;2024-03-25T13:00:00;6.57;;;2.08;;
59922;SDS011;45778;51.142;3.732;2024-03-25T13:02:26;3.50;;;1.60;;
59922;SDS011;45778;51.142;3.732;2024-03-25T13:04:52;4.22;;;1.40;;
59922;SDS011;45778;51.142;3.732;2024-03-25T13:07:19;3.92;;;1.23;;
59922;SDS011;45778;51.142;3.732;2024-03-25T13:09:45;3.17;;;1.60;;
59922;SDS011;45778;51.142;3.732;2024-03-25T13:12:10;3.35;;;1.65;;
59922;SDS011;45778;51.142;3.732;2024-03-25T13:14:36;3.95;;;1.10;;
59922;SDS011;45778;51.142;3.732;2024-03-25T13:17:02;4.18;;;1.30;;
59922;SDS011;45778;51.142;3.732;2024-03-25T13:19:27;2.95;;;1.30;;
59922;SDS011;45778;51.142;3.732;2024-03-25T13:21:56;2.33;;;1.33;;
59922;SDS011;45778;51.142;3.732;2024-03-25T13:24:21;3.78;;;1.45;;
59922;SDS011;45778;51.142;3.732;2024-03-25T13:26:47;6.53;;;1.38;;
59922;SDS011;45778;51.142;3.732;2024-03-25T13:29:13;4.05;;;1.35;;
59922;SDS011;45778;51.142;3.732;2024-03-25T13:31:39;3.88;;;1.45;;
59922;SDS011;45778;51.142;3.732;2024-03-25T13:34:04;4.03;;;1.42;;
59922;SDS011;45778;51.142;3.732;2024-03-25T13:36:31;2.40;;;1.10;;
59922;SDS011;45778;51.142;3.732;2024-03-25T13:38:56;4.45;;;1.40;;
59922;SDS011;45778;51.142;3.732;2024-03-25T13:41:23;1.50;;;1.10;;
59922;SDS011;45778;51.142;3.732;2024-03-25T13:43:49;3.78;;;1.30;;
59922;SDS011;45778;51.142;3.732;2024-03-25T13:46:15;2.30;;;1.33;;
59922;SDS011;45778;51.142;3.732;2024-03-25T13:48:42;4.50;;;1.70;;
59922;SDS011;45778;51.142;3.732;2024-03-25T13:51:08;4.07;;;1.35;;
59922;SDS011;45778;51.142;3.732;2024-03-25T13:53:34;7.97;;;1.80;;
59922;SDS011;45778;51.142;3.732;2024-03-25T13:56:00;2.85;;;1.33;;
59922;SDS011;45778;51.142;3.732;2024-03-25T13:58:25;4.95;;;1.33;;
59922;SDS011;45778;51.142;3.732;2024-03-25T14:00:51;5.28;;;1.17;;
59922;SDS011;45778;51.142;3.732;2024-03-25T14:03:17;4.78;;;1.42;;
59922;SDS011;45778;51.142;3.732;2024-03-25T14:05:43;6.30;;;1.60;;
59922;SDS011;45778;51.142;3.732;2024-03-25T14:08:09;2.30;;;0.90;;
59922;SDS011;45778;51.142;3.732;2024-03-25T14:10:35;4.80;;;1.10;;
59922;SDS011;45778;51.142;3.732;2024-03-25T14:13:01;3.60;;;1.00;;
59922;SDS011;45778;51.142;3.732;2024-03-25T14:15:28;1.77;;;0.93;;
59922;SDS011;45778;51.142;3.732;2024-03-25T14:17:54;2.78;;;1.02;;
59922;SDS011;45778;51.142;3.732;2024-03-25T14:20:20;3.25;;;1.13;;
59922;SDS011;45778;51.142;3.732;2024-03-25T14:22:45;6.85;;;1.13;;
59922;SDS011;45778;51.142;3.732;2024-03-25T14:25:11;3.88;;;1.02;;
59922;SDS011;45778;51.142;3.732;2024-03-25T14:27:36;8.30;;;1.55;;
59922;SDS011;45778;51.142;3.732;2024-03-25T14:30:02;3.08;;;1.20;;
59922;SDS011;45778;51.142;3.732;2024-03-25T14:32:28;1.55;;;1.08;;